sensor_id;sensor_type;location;lat;lon;timestamp;P1;durP1;ratioP1;P2;durP2;ratioP2
38529;SDS011;24301;54.332;48.386;2023-03-30T00:00:58;3.10;;;2.10;;
38529;SDS011;24301;54.332;48.386;2023-03-30T00:03:25;3.37;;;1.97;;
38529;SDS011;24301;54.332;48.386;2023-03-30T00:05:52;2.17;;;1.60;;
38529;SDS011;24301;54.332;48.386;2023-03-30T00:08:23;2.87;;;1.83;;
38529;SDS011;24301;54.332;48.386;2023-03-30T00:10:58;3.63;;;2.03;;
38529;SDS011;24301;54.332;48.386;2023-03-30T00:13:29;3.07;;;2.00;;
38529;SDS011;24301;54.332;48.386;2023-03-30T00:15:56;2.27;;;2.03;;
38529;SDS011;24301;54.332;48.386;2023-03-30T00:18:27;3.63;;;2.17;;
38529;SDS011;24301;54.332;48.386;2023-03-30T00:20:54;2.03;;;1.83;;
38529;SDS011;24301;54.332;48.386;2023-03-30T00:23:20;4.43;;;2.30;;
38529;SDS011;24301;54.332;48.386;2023-03-30T00:25:46;3.27;;;2.10;;
38529;SDS011;24301;54.332;48.386;2023-03-30T00:28:12;2.90;;;2.23;;
38529;SDS011;24301;54.332;48.386;2023-03-30T00:30:39;2.97;;;2.00;;
38529;SDS011;24301;54.332;48.386;2023-03-30T00:33:05;2.70;;;2.27;;
38529;SDS011;24301;54.332;48.386;2023-03-30T00:35:31;4.03;;;2.20;;
38529;SDS011;24301;54.332;48.386;2023-03-30T00:37:58;3.70;;;2.87;;
38529;SDS011;24301;54.332;48.386;2023-03-30T00:40:28;2.73;;;2.20;;
38529;SDS011;24301;54.332;48.386;2023-03-30T00:45:29;5.05;;;2.40;;
38529;SDS011;24301;54.332;48.386;2023-03-30T00:47:58;3.23;;;2.40;;
38529;SDS011;24301;54.332;48.386;2023-03-30T00:50:26;3.93;;;2.40;;
38529;SDS011;24301;54.332;48.386;2023-03-30T00:52:59;5.10;;;2.50;;
38529;SDS011;24301;54.332;48.386;2023-03-30T00:55:28;4.73;;;2.70;;
38529;SDS011;24301;54.332;48.386;2023-03-30T00:57:56;3.77;;;2.70;;
38529;SDS011;24301;54.332;48.386;2023-03-30T01:00:22;5.57;;;2.47;;
38529;SDS011;24301;54.332;48.386;2023-03-30T01:02:50;4.80;;;2.93;;
38529;SDS011;24301;54.332;48.386;2023-03-30T01:05:21;3.30;;;2.47;;
38529;SDS011;24301;54.332;48.386;2023-03-30T01:07:48;3.07;;;2.37;;
38529;SDS011;24301;54.332;48.386;2023-03-30T01:10:15;4.13;;;2.90;;
38529;SDS011;24301;54.332;48.386;2023-03-30T01:12:42;4.80;;;2.87;;
38529;SDS011;24301;54.332;48.386;2023-03-30T01:15:08;4.87;;;3.03;;
38529;SDS011;24301;54.332;48.386;2023-03-30T01:36:57;5.47;;;4.00;;
38529;SDS011;24301;54.332;48.386;2023-03-30T01:39:51;5.67;;;3.43;;
38529;SDS011;24301;54.332;48.386;2023-03-30T01:50:47;8.40;;;3.93;;
38529;SDS011;24301;54.332;48.386;2023-03-30T01:56:15;5.83;;;3.30;;
38529;SDS011;24301;54.332;48.386;2023-03-30T01:58:57;6.33;;;3.73;;
38529;SDS011;24301;54.332;48.386;2023-03-30T02:01:29;5.75;;;3.78;;
38529;SDS011;24301;54.332;48.386;2023-03-30T02:03:58;4.83;;;3.70;;
38529;SDS011;24301;54.332;48.386;2023-03-30T02:06:30;5.83;;;3.70;;
38529;SDS011;24301;54.332;48.386;2023-03-30T02:09:07;7.63;;;3.67;;
38529;SDS011;24301;54.332;48.386;2023-03-30T02:11:36;5.40;;;3.70;;
38529;SDS011;24301;54.332;48.386;2023-03-30T02:14:06;7.37;;;4.23;;
38529;SDS011;24301;54.332;48.386;2023-03-30T02:16:39;7.30;;;3.47;;
38529;SDS011;24301;54.332;48.386;2023-03-30T02:19:10;4.97;;;3.33;;
38529;SDS011;24301;54.332;48.386;2023-03-30T02:21:36;6.17;;;3.60;;
38529;SDS011;24301;54.332;48.386;2023-03-30T02:24:03;6.33;;;4.27;;
38529;SDS011;24301;54.332;48.386;2023-03-30T02:26:44;6.37;;;4.30;;
38529;SDS011;24301;54.332;48.386;2023-03-30T02:29:12;6.73;;;4.47;;
38529;SDS011;24301;54.332;48.386;2023-03-30T02:31:39;5.00;;;3.73;;
38529;SDS011;24301;54.332;48.386;2023-03-30T02:39:13;7.80;;;4.03;;
38529;SDS011;24301;54.332;48.386;2023-03-30T03:03:37;5.37;;;3.87;;
38529;SDS011;24301;54.332;48.386;2023-03-30T03:06:06;7.40;;;4.70;;
38529;SDS011;24301;54.332;48.386;2023-03-30T03:08:38;5.80;;;4.00;;
38529;SDS011;24301;54.332;48.386;2023-03-30T03:11:18;5.87;;;4.17;;
38529;SDS011;24301;54.332;48.386;2023-03-30T03:13:44;7.17;;;4.47;;
38529;SDS011;24301;54.332;48.386;2023-03-30T03:16:11;8.10;;;4.30;;
38529;SDS011;24301;54.332;48.386;2023-03-30T03:18:39;5.53;;;4.27;;
38529;SDS011;24301;54.332;48.386;2023-03-30T03:21:10;8.37;;;4.20;;
38529;SDS011;24301;54.332;48.386;2023-03-30T03:23:38;7.23;;;4.37;;
38529;SDS011;24301;54.332;48.386;2023-03-30T03:26:09;7.20;;;4.23;;
38529;SDS011;24301;54.332;48.386;2023-03-30T03:28:36;5.80;;;3.87;;
38529;SDS011;24301;54.332;48.386;2023-03-30T03:31:05;9.93;;;3.90;;
38529;SDS011;24301;54.332;48.386;2023-03-30T03:33:34;6.10;;;3.83;;
38529;SDS011;24301;54.332;48.386;2023-03-30T03:36:13;6.07;;;4.50;;
38529;SDS011;24301;54.332;48.386;2023-03-30T03:38:45;7.33;;;4.30;;
38529;SDS011;24301;54.332;48.386;2023-03-30T03:41:12;8.50;;;3.80;;
38529;SDS011;24301;54.332;48.386;2023-03-30T03:43:40;5.40;;;3.90;;
38529;SDS011;24301;54.332;48.386;2023-03-30T03:46:06;6.37;;;4.10;;
38529;SDS011;24301;54.332;48.386;2023-03-30T03:48:32;5.53;;;4.07;;
38529;SDS011;24301;54.332;48.386;2023-03-30T03:50:58;8.70;;;4.30;;
38529;SDS011;24301;54.332;48.386;2023-03-30T03:53:27;8.47;;;4.17;;
38529;SDS011;24301;54.332;48.386;2023-03-30T03:55:59;8.97;;;4.20;;
38529;SDS011;24301;54.332;48.386;2023-03-30T03:58:26;13.67;;;4.67;;
38529;SDS011;24301;54.332;48.386;2023-03-30T04:01:01;6.67;;;4.47;;
38529;SDS011;24301;54.332;48.386;2023-03-30T04:03:27;6.93;;;4.33;;
38529;SDS011;24301;54.332;48.386;2023-03-30T04:05:56;5.67;;;4.50;;
38529;SDS011;24301;54.332;48.386;2023-03-30T04:08:23;7.70;;;4.27;;
38529;SDS011;24301;54.332;48.386;2023-03-30T04:10:50;9.00;;;4.83;;
38529;SDS011;24301;54.332;48.386;2023-03-30T04:13:31;7.87;;;4.60;;
38529;SDS011;24301;54.332;48.386;2023-03-30T04:16:06;11.83;;;6.07;;
38529;SDS011;24301;54.332;48.386;2023-03-30T04:18:51;8.13;;;4.67;;
38529;SDS011;24301;54.332;48.386;2023-03-30T04:21:35;7.13;;;4.23;;
38529;SDS011;24301;54.332;48.386;2023-03-30T04:24:24;5.70;;;4.60;;
38529;SDS011;24301;54.332;48.386;2023-03-30T04:27:12;8.27;;;4.17;;
38529;SDS011;24301;54.332;48.386;2023-03-30T04:30:01;6.80;;;4.50;;
38529;SDS011;24301;54.332;48.386;2023-03-30T04:33:06;8.97;;;4.57;;
38529;SDS011;24301;54.332;48.386;2023-03-30T04:35:39;7.47;;;3.95;;
38529;SDS011;24301;54.332;48.386;2023-03-30T04:38:36;9.93;;;5.03;;
38529;SDS011;24301;54.332;48.386;2023-03-30T04:41:05;9.27;;;4.33;;
38529;SDS011;24301;54.332;48.386;2023-03-30T04:44:05;7.27;;;5.17;;
38529;SDS011;24301;54.332;48.386;2023-03-30T04:46:56;9.73;;;4.80;;
38529;SDS011;24301;54.332;48.386;2023-03-30T04:49:42;9.83;;;4.37;;
38529;SDS011;24301;54.332;48.386;2023-03-30T04:52:34;8.97;;;4.93;;
38529;SDS011;24301;54.332;48.386;2023-03-30T04:55:18;6.73;;;4.30;;
38529;SDS011;24301;54.332;48.386;2023-03-30T04:57:53;5.57;;;3.80;;
38529;SDS011;24301;54.332;48.386;2023-03-30T05:00:38;6.73;;;4.23;;
38529;SDS011;24301;54.332;48.386;2023-03-30T05:03:23;8.80;;;4.10;;
38529;SDS011;24301;54.332;48.386;2023-03-30T05:06:02;7.77;;;4.80;;
38529;SDS011;24301;54.332;48.386;2023-03-30T05:08:57;7.27;;;3.80;;
38529;SDS011;24301;54.332;48.386;2023-03-30T05:11:46;9.20;;;4.87;;
38529;SDS011;24301;54.332;48.386;2023-03-30T05:14:34;10.17;;;4.93;;
38529;SDS011;24301;54.332;48.386;2023-03-30T05:17:18;8.63;;;4.53;;
38529;SDS011;24301;54.332;48.386;2023-03-30T05:19:59;5.90;;;4.27;;
38529;SDS011;24301;54.332;48.386;2023-03-30T05:22:42;10.00;;;4.70;;
38529;SDS011;24301;54.332;48.386;2023-03-30T05:25:32;7.33;;;4.67;;
38529;SDS011;24301;54.332;48.386;2023-03-30T05:28:24;11.10;;;4.47;;
38529;SDS011;24301;54.332;48.386;2023-03-30T05:31:26;9.27;;;4.27;;
38529;SDS011;24301;54.332;48.386;2023-03-30T08:47:30;5.47;;;2.60;;
38529;SDS011;24301;54.332;48.386;2023-03-30T08:50:06;3.10;;;2.33;;
38529;SDS011;24301;54.332;48.386;2023-03-30T08:52:38;7.37;;;2.37;;
38529;SDS011;24301;54.332;48.386;2023-03-30T09:04:03;3.27;;;1.80;;
38529;SDS011;24301;54.332;48.386;2023-03-30T09:09:29;3.57;;;1.87;;
38529;SDS011;24301;54.332;48.386;2023-03-30T09:12:05;2.70;;;1.60;;
38529;SDS011;24301;54.332;48.386;2023-03-30T09:14:43;4.33;;;1.50;;
38529;SDS011;24301;54.332;48.386;2023-03-30T09:19:53;3.70;;;2.03;;
38529;SDS011;24301;54.332;48.386;2023-03-30T09:22:28;3.83;;;1.90;;
38529;SDS011;24301;54.332;48.386;2023-03-30T09:24:57;7.93;;;1.90;;
38529;SDS011;24301;54.332;48.386;2023-03-30T09:29:52;5.93;;;1.60;;
38529;SDS011;24301;54.332;48.386;2023-03-30T09:32:24;5.53;;;2.10;;
38529;SDS011;24301;54.332;48.386;2023-03-30T09:34:54;3.87;;;2.43;;
38529;SDS011;24301;54.332;48.386;2023-03-30T09:37:22;4.23;;;2.37;;
38529;SDS011;24301;54.332;48.386;2023-03-30T09:39:52;2.67;;;1.93;;
38529;SDS011;24301;54.332;48.386;2023-03-30T09:48:07;6.20;;;1.83;;
38529;SDS011;24301;54.332;48.386;2023-03-30T09:50:38;9.90;;;3.07;;
38529;SDS011;24301;54.332;48.386;2023-03-30T09:53:23;7.50;;;1.87;;
38529;SDS011;24301;54.332;48.386;2023-03-30T09:56:39;2.67;;;1.40;;
38529;SDS011;24301;54.332;48.386;2023-03-30T09:58:51;6.23;;;2.13;;
38529;SDS011;24301;54.332;48.386;2023-03-30T10:01:18;2.77;;;1.30;;
38529;SDS011;24301;54.332;48.386;2023-03-30T10:04:04;3.77;;;2.07;;
38529;SDS011;24301;54.332;48.386;2023-03-30T10:06:43;5.80;;;1.33;;
38529;SDS011;24301;54.332;48.386;2023-03-30T10:09:11;3.07;;;1.37;;
38529;SDS011;24301;54.332;48.386;2023-03-30T10:11:45;6.50;;;1.60;;
38529;SDS011;24301;54.332;48.386;2023-03-30T10:16:48;4.13;;;1.90;;
38529;SDS011;24301;54.332;48.386;2023-03-30T10:19:24;3.37;;;1.20;;
38529;SDS011;24301;54.332;48.386;2023-03-30T10:22:00;6.27;;;1.60;;
38529;SDS011;24301;54.332;48.386;2023-03-30T10:24:30;5.23;;;1.73;;
38529;SDS011;24301;54.332;48.386;2023-03-30T10:27:10;2.50;;;1.27;;
38529;SDS011;24301;54.332;48.386;2023-03-30T10:29:37;7.00;;;1.70;;
38529;SDS011;24301;54.332;48.386;2023-03-30T10:32:17;6.13;;;1.30;;
38529;SDS011;24301;54.332;48.386;2023-03-30T10:34:47;4.40;;;1.50;;
38529;SDS011;24301;54.332;48.386;2023-03-30T10:37:38;3.47;;;1.50;;
38529;SDS011;24301;54.332;48.386;2023-03-30T10:40:15;1.93;;;1.13;;
38529;SDS011;24301;54.332;48.386;2023-03-30T10:42:45;3.77;;;1.33;;
38529;SDS011;24301;54.332;48.386;2023-03-30T10:45:18;4.87;;;1.30;;
38529;SDS011;24301;54.332;48.386;2023-03-30T10:48:00;6.50;;;1.60;;
38529;SDS011;24301;54.332;48.386;2023-03-30T11:07:34;7.77;;;3.23;;
38529;SDS011;24301;54.332;48.386;2023-03-30T11:10:27;4.03;;;2.87;;
38529;SDS011;24301;54.332;48.386;2023-03-30T11:15:43;3.37;;;1.90;;
38529;SDS011;24301;54.332;48.386;2023-03-30T11:18:29;6.80;;;2.07;;
38529;SDS011;24301;54.332;48.386;2023-03-30T11:21:18;8.53;;;2.07;;
38529;SDS011;24301;54.332;48.386;2023-03-30T11:23:59;4.37;;;2.23;;
38529;SDS011;24301;54.332;48.386;2023-03-30T11:26:34;5.80;;;1.60;;
38529;SDS011;24301;54.332;48.386;2023-03-30T11:42:43;6.20;;;2.00;;
38529;SDS011;24301;54.332;48.386;2023-03-30T11:59:01;4.23;;;1.73;;
38529;SDS011;24301;54.332;48.386;2023-03-30T12:04:31;5.03;;;1.80;;
38529;SDS011;24301;54.332;48.386;2023-03-30T12:07:37;3.53;;;1.70;;
38529;SDS011;24301;54.332;48.386;2023-03-30T12:13:00;5.17;;;1.60;;
38529;SDS011;24301;54.332;48.386;2023-03-30T12:15:33;5.60;;;2.10;;
38529;SDS011;24301;54.332;48.386;2023-03-30T12:23:04;9.37;;;3.00;;
38529;SDS011;24301;54.332;48.386;2023-03-30T12:28:47;7.03;;;3.07;;
38529;SDS011;24301;54.332;48.386;2023-03-30T12:31:46;4.90;;;3.27;;
38529;SDS011;24301;54.332;48.386;2023-03-30T12:34:11;6.60;;;3.17;;
38529;SDS011;24301;54.332;48.386;2023-03-30T12:36:41;5.87;;;4.40;;
38529;SDS011;24301;54.332;48.386;2023-03-30T12:42:30;5.60;;;3.47;;
38529;SDS011;24301;54.332;48.386;2023-03-30T12:56:24;9.73;;;4.45;;
38529;SDS011;24301;54.332;48.386;2023-03-30T12:59:03;6.33;;;2.63;;
38529;SDS011;24301;54.332;48.386;2023-03-30T13:04:54;7.80;;;2.60;;
38529;SDS011;24301;54.332;48.386;2023-03-30T13:07:25;8.93;;;2.20;;
38529;SDS011;24301;54.332;48.386;2023-03-30T13:09:57;5.10;;;2.00;;
38529;SDS011;24301;54.332;48.386;2023-03-30T13:12:35;2.77;;;1.80;;
38529;SDS011;24301;54.332;48.386;2023-03-30T13:20:34;4.27;;;2.80;;
38529;SDS011;24301;54.332;48.386;2023-03-30T13:23:25;8.10;;;2.50;;
38529;SDS011;24301;54.332;48.386;2023-03-30T13:34:42;4.90;;;2.20;;
38529;SDS011;24301;54.332;48.386;2023-03-30T13:47:43;6.57;;;2.27;;
38529;SDS011;24301;54.332;48.386;2023-03-30T13:50:30;2.90;;;1.83;;
38529;SDS011;24301;54.332;48.386;2023-03-30T13:53:03;8.63;;;2.93;;
38529;SDS011;24301;54.332;48.386;2023-03-30T13:55:37;4.80;;;1.73;;
38529;SDS011;24301;54.332;48.386;2023-03-30T14:00:47;11.37;;;2.77;;
38529;SDS011;24301;54.332;48.386;2023-03-30T14:06:03;4.13;;;2.40;;
38529;SDS011;24301;54.332;48.386;2023-03-30T14:08:36;4.37;;;1.83;;
38529;SDS011;24301;54.332;48.386;2023-03-30T14:11:17;8.63;;;2.03;;
38529;SDS011;24301;54.332;48.386;2023-03-30T14:13:50;6.03;;;1.87;;
38529;SDS011;24301;54.332;48.386;2023-03-30T14:16:19;3.83;;;2.17;;
38529;SDS011;24301;54.332;48.386;2023-03-30T14:18:47;5.70;;;2.30;;
38529;SDS011;24301;54.332;48.386;2023-03-30T14:21:18;8.97;;;1.80;;
38529;SDS011;24301;54.332;48.386;2023-03-30T14:23:50;5.55;;;2.50;;
38529;SDS011;24301;54.332;48.386;2023-03-30T14:26:24;7.77;;;2.43;;
38529;SDS011;24301;54.332;48.386;2023-03-30T14:28:59;9.00;;;2.60;;
38529;SDS011;24301;54.332;48.386;2023-03-30T14:31:40;5.57;;;2.67;;
38529;SDS011;24301;54.332;48.386;2023-03-30T14:36:59;7.17;;;2.37;;
38529;SDS011;24301;54.332;48.386;2023-03-30T14:39:27;6.53;;;3.03;;
38529;SDS011;24301;54.332;48.386;2023-03-30T14:41:55;4.30;;;2.00;;
38529;SDS011;24301;54.332;48.386;2023-03-30T14:44:21;10.10;;;2.47;;
38529;SDS011;24301;54.332;48.386;2023-03-30T14:46:49;6.63;;;2.50;;
38529;SDS011;24301;54.332;48.386;2023-03-30T14:49:24;4.60;;;2.90;;
38529;SDS011;24301;54.332;48.386;2023-03-30T14:52:00;5.93;;;2.63;;
38529;SDS011;24301;54.332;48.386;2023-03-30T14:54:38;5.33;;;3.00;;
38529;SDS011;24301;54.332;48.386;2023-03-30T14:57:05;7.00;;;3.07;;
38529;SDS011;24301;54.332;48.386;2023-03-30T14:59:34;6.70;;;2.83;;
38529;SDS011;24301;54.332;48.386;2023-03-30T15:02:20;10.10;;;3.73;;
38529;SDS011;24301;54.332;48.386;2023-03-30T15:04:48;13.23;;;4.30;;
38529;SDS011;24301;54.332;48.386;2023-03-30T15:07:15;6.67;;;3.53;;
38529;SDS011;24301;54.332;48.386;2023-03-30T15:09:43;9.90;;;3.83;;
38529;SDS011;24301;54.332;48.386;2023-03-30T15:12:16;8.10;;;4.83;;
38529;SDS011;24301;54.332;48.386;2023-03-30T15:14:59;6.97;;;3.97;;
38529;SDS011;24301;54.332;48.386;2023-03-30T15:17:30;8.80;;;4.73;;
38529;SDS011;24301;54.332;48.386;2023-03-30T15:19:58;9.33;;;4.30;;
38529;SDS011;24301;54.332;48.386;2023-03-30T15:22:32;8.95;;;4.80;;
38529;SDS011;24301;54.332;48.386;2023-03-30T15:25:01;12.40;;;5.13;;
38529;SDS011;24301;54.332;48.386;2023-03-30T15:27:32;8.70;;;4.23;;
38529;SDS011;24301;54.332;48.386;2023-03-30T15:30:02;6.97;;;4.67;;
38529;SDS011;24301;54.332;48.386;2023-03-30T15:32:33;7.53;;;4.33;;
38529;SDS011;24301;54.332;48.386;2023-03-30T15:35:17;6.57;;;4.53;;
38529;SDS011;24301;54.332;48.386;2023-03-30T15:38:12;7.93;;;4.67;;
38529;SDS011;24301;54.332;48.386;2023-03-30T15:40:59;9.37;;;4.47;;
38529;SDS011;24301;54.332;48.386;2023-03-30T15:43:27;7.10;;;3.70;;
38529;SDS011;24301;54.332;48.386;2023-03-30T15:46:14;12.07;;;4.50;;
38529;SDS011;24301;54.332;48.386;2023-03-30T15:48:47;8.87;;;4.37;;
38529;SDS011;24301;54.332;48.386;2023-03-30T15:54:36;6.80;;;4.07;;
38529;SDS011;24301;54.332;48.386;2023-03-30T16:02:23;8.83;;;3.87;;
38529;SDS011;24301;54.332;48.386;2023-03-30T16:05:03;9.20;;;4.53;;
38529;SDS011;24301;54.332;48.386;2023-03-30T16:07:32;9.27;;;4.90;;
38529;SDS011;24301;54.332;48.386;2023-03-30T16:10:00;8.03;;;3.90;;
38529;SDS011;24301;54.332;48.386;2023-03-30T16:12:27;8.87;;;3.63;;
38529;SDS011;24301;54.332;48.386;2023-03-30T16:14:56;8.47;;;3.93;;
38529;SDS011;24301;54.332;48.386;2023-03-30T16:17:22;11.60;;;4.17;;
38529;SDS011;24301;54.332;48.386;2023-03-30T16:22:22;8.13;;;4.30;;
38529;SDS011;24301;54.332;48.386;2023-03-30T16:24:48;5.90;;;4.30;;
38529;SDS011;24301;54.332;48.386;2023-03-30T16:27:15;10.23;;;4.53;;
38529;SDS011;24301;54.332;48.386;2023-03-30T16:29:41;9.40;;;4.27;;
38529;SDS011;24301;54.332;48.386;2023-03-30T16:32:07;7.60;;;3.97;;
38529;SDS011;24301;54.332;48.386;2023-03-30T16:34:33;8.73;;;4.60;;
38529;SDS011;24301;54.332;48.386;2023-03-30T16:37:00;12.83;;;4.30;;
38529;SDS011;24301;54.332;48.386;2023-03-30T16:39:27;7.47;;;4.27;;
38529;SDS011;24301;54.332;48.386;2023-03-30T16:41:54;11.93;;;4.17;;
38529;SDS011;24301;54.332;48.386;2023-03-30T16:44:21;11.10;;;3.87;;
38529;SDS011;24301;54.332;48.386;2023-03-30T16:46:49;6.63;;;4.87;;
38529;SDS011;24301;54.332;48.386;2023-03-30T16:49:17;5.90;;;3.70;;
38529;SDS011;24301;54.332;48.386;2023-03-30T16:51:48;7.40;;;3.33;;
38529;SDS011;24301;54.332;48.386;2023-03-30T16:54:16;5.53;;;3.53;;
38529;SDS011;24301;54.332;48.386;2023-03-30T16:56:43;7.17;;;3.83;;
38529;SDS011;24301;54.332;48.386;2023-03-30T16:59:30;6.33;;;4.23;;
38529;SDS011;24301;54.332;48.386;2023-03-30T17:01:58;7.00;;;4.57;;
38529;SDS011;24301;54.332;48.386;2023-03-30T17:04:33;7.13;;;3.53;;
38529;SDS011;24301;54.332;48.386;2023-03-30T17:07:18;5.00;;;3.67;;
38529;SDS011;24301;54.332;48.386;2023-03-30T17:09:44;7.53;;;3.50;;
38529;SDS011;24301;54.332;48.386;2023-03-30T17:12:11;6.30;;;3.67;;
38529;SDS011;24301;54.332;48.386;2023-03-30T17:14:43;8.03;;;3.90;;
38529;SDS011;24301;54.332;48.386;2023-03-30T17:17:12;9.53;;;3.77;;
38529;SDS011;24301;54.332;48.386;2023-03-30T17:19:39;6.60;;;3.30;;
38529;SDS011;24301;54.332;48.386;2023-03-30T17:22:06;8.27;;;3.73;;
38529;SDS011;24301;54.332;48.386;2023-03-30T17:24:40;6.68;;;4.18;;
38529;SDS011;24301;54.332;48.386;2023-03-30T17:27:12;5.33;;;4.20;;
38529;SDS011;24301;54.332;48.386;2023-03-30T17:29:40;6.40;;;4.20;;
38529;SDS011;24301;54.332;48.386;2023-03-30T17:32:10;7.17;;;3.47;;
38529;SDS011;24301;54.332;48.386;2023-03-30T17:34:37;6.97;;;3.60;;
38529;SDS011;24301;54.332;48.386;2023-03-30T17:37:16;6.33;;;3.40;;
38529;SDS011;24301;54.332;48.386;2023-03-30T17:39:42;5.43;;;3.60;;
38529;SDS011;24301;54.332;48.386;2023-03-30T17:42:10;6.20;;;3.40;;
38529;SDS011;24301;54.332;48.386;2023-03-30T17:44:39;6.77;;;4.20;;
38529;SDS011;24301;54.332;48.386;2023-03-30T17:47:07;5.93;;;3.80;;
38529;SDS011;24301;54.332;48.386;2023-03-30T17:49:37;5.80;;;3.50;;
38529;SDS011;24301;54.332;48.386;2023-03-30T17:52:05;8.43;;;3.60;;
38529;SDS011;24301;54.332;48.386;2023-03-30T17:54:31;8.60;;;3.90;;
38529;SDS011;24301;54.332;48.386;2023-03-30T17:56:58;8.53;;;4.10;;
38529;SDS011;24301;54.332;48.386;2023-03-30T17:59:24;7.23;;;3.73;;
38529;SDS011;24301;54.332;48.386;2023-03-30T18:01:50;4.43;;;3.10;;
38529;SDS011;24301;54.332;48.386;2023-03-30T18:04:23;6.00;;;3.73;;
38529;SDS011;24301;54.332;48.386;2023-03-30T18:06:49;6.30;;;3.70;;
38529;SDS011;24301;54.332;48.386;2023-03-30T18:09:17;6.40;;;3.70;;
38529;SDS011;24301;54.332;48.386;2023-03-30T18:11:43;7.60;;;4.00;;
38529;SDS011;24301;54.332;48.386;2023-03-30T18:14:12;6.63;;;3.23;;
38529;SDS011;24301;54.332;48.386;2023-03-30T18:16:38;5.83;;;2.83;;
38529;SDS011;24301;54.332;48.386;2023-03-30T18:19:09;4.43;;;2.63;;
38529;SDS011;24301;54.332;48.386;2023-03-30T18:21:40;7.83;;;3.10;;
38529;SDS011;24301;54.332;48.386;2023-03-30T18:24:07;4.17;;;3.13;;
38529;SDS011;24301;54.332;48.386;2023-03-30T18:26:33;7.10;;;3.17;;
38529;SDS011;24301;54.332;48.386;2023-03-30T18:29:00;6.13;;;2.90;;
38529;SDS011;24301;54.332;48.386;2023-03-30T18:31:29;5.33;;;3.20;;
38529;SDS011;24301;54.332;48.386;2023-03-30T18:33:58;6.57;;;3.37;;
38529;SDS011;24301;54.332;48.386;2023-03-30T18:36:24;6.97;;;3.27;;
38529;SDS011;24301;54.332;48.386;2023-03-30T18:38:50;6.77;;;3.57;;
38529;SDS011;24301;54.332;48.386;2023-03-30T18:41:16;9.63;;;3.80;;
38529;SDS011;24301;54.332;48.386;2023-03-30T18:43:42;5.10;;;3.60;;
38529;SDS011;24301;54.332;48.386;2023-03-30T18:46:09;8.67;;;3.87;;
38529;SDS011;24301;54.332;48.386;2023-03-30T18:48:37;7.40;;;3.77;;
38529;SDS011;24301;54.332;48.386;2023-03-30T18:51:07;5.87;;;4.00;;
38529;SDS011;24301;54.332;48.386;2023-03-30T18:53:38;5.33;;;3.57;;
38529;SDS011;24301;54.332;48.386;2023-03-30T18:56:04;5.63;;;4.27;;
38529;SDS011;24301;54.332;48.386;2023-03-30T18:58:31;5.97;;;4.30;;
38529;SDS011;24301;54.332;48.386;2023-03-30T19:00:58;8.47;;;4.33;;
38529;SDS011;24301;54.332;48.386;2023-03-30T19:03:25;7.07;;;4.70;;
38529;SDS011;24301;54.332;48.386;2023-03-30T19:05:52;5.13;;;3.80;;
38529;SDS011;24301;54.332;48.386;2023-03-30T19:08:22;8.63;;;4.93;;
38529;SDS011;24301;54.332;48.386;2023-03-30T19:10:50;6.43;;;4.63;;
38529;SDS011;24301;54.332;48.386;2023-03-30T19:13:19;6.20;;;4.60;;
38529;SDS011;24301;54.332;48.386;2023-03-30T19:15:48;7.87;;;4.97;;
38529;SDS011;24301;54.332;48.386;2023-03-30T19:18:15;6.93;;;5.10;;
38529;SDS011;24301;54.332;48.386;2023-03-30T19:20:42;7.83;;;5.87;;
38529;SDS011;24301;54.332;48.386;2023-03-30T19:23:12;6.33;;;5.10;;
38529;SDS011;24301;54.332;48.386;2023-03-30T19:25:39;8.27;;;5.17;;
38529;SDS011;24301;54.332;48.386;2023-03-30T19:28:06;7.93;;;5.00;;
38529;SDS011;24301;54.332;48.386;2023-03-30T19:30:33;7.63;;;5.17;;
38529;SDS011;24301;54.332;48.386;2023-03-30T19:33:00;7.20;;;4.43;;
38529;SDS011;24301;54.332;48.386;2023-03-30T19:35:29;10.73;;;5.30;;
38529;SDS011;24301;54.332;48.386;2023-03-30T19:37:55;8.77;;;5.07;;
38529;SDS011;24301;54.332;48.386;2023-03-30T19:40:22;6.57;;;4.43;;
38529;SDS011;24301;54.332;48.386;2023-03-30T19:42:48;7.23;;;3.63;;
38529;SDS011;24301;54.332;48.386;2023-03-30T19:45:16;5.20;;;3.70;;
38529;SDS011;24301;54.332;48.386;2023-03-30T19:47:44;6.60;;;3.53;;
38529;SDS011;24301;54.332;48.386;2023-03-30T19:50:11;9.60;;;3.10;;
38529;SDS011;24301;54.332;48.386;2023-03-30T19:52:42;5.93;;;3.37;;
38529;SDS011;24301;54.332;48.386;2023-03-30T19:55:08;7.53;;;4.23;;
38529;SDS011;24301;54.332;48.386;2023-03-30T19:57:35;5.67;;;3.37;;
38529;SDS011;24301;54.332;48.386;2023-03-30T20:00:03;7.23;;;4.10;;
38529;SDS011;24301;54.332;48.386;2023-03-30T20:02:39;8.53;;;3.07;;
38529;SDS011;24301;54.332;48.386;2023-03-30T20:05:05;6.07;;;3.07;;
38529;SDS011;24301;54.332;48.386;2023-03-30T20:07:34;6.33;;;3.43;;
38529;SDS011;24301;54.332;48.386;2023-03-30T20:10:01;5.47;;;3.23;;
38529;SDS011;24301;54.332;48.386;2023-03-30T20:12:29;3.93;;;2.70;;
38529;SDS011;24301;54.332;48.386;2023-03-30T20:14:56;5.77;;;2.77;;
38529;SDS011;24301;54.332;48.386;2023-03-30T20:17:23;4.97;;;3.07;;
38529;SDS011;24301;54.332;48.386;2023-03-30T20:19:49;6.93;;;3.60;;
38529;SDS011;24301;54.332;48.386;2023-03-30T20:22:18;5.20;;;3.23;;
38529;SDS011;24301;54.332;48.386;2023-03-30T20:24:44;4.90;;;2.53;;
38529;SDS011;24301;54.332;48.386;2023-03-30T20:43:40;4.68;;;3.45;;
38529;SDS011;24301;54.332;48.386;2023-03-30T20:46:17;4.15;;;2.58;;
38529;SDS011;24301;54.332;48.386;2023-03-30T20:48:44;7.33;;;3.17;;
38529;SDS011;24301;54.332;48.386;2023-03-30T20:51:21;5.85;;;3.33;;
38529;SDS011;24301;54.332;48.386;2023-03-30T20:53:48;4.83;;;3.20;;
38529;SDS011;24301;54.332;48.386;2023-03-30T20:56:15;4.00;;;2.83;;
38529;SDS011;24301;54.332;48.386;2023-03-30T20:58:45;4.63;;;3.00;;
38529;SDS011;24301;54.332;48.386;2023-03-30T21:03:53;5.63;;;3.10;;
38529;SDS011;24301;54.332;48.386;2023-03-30T21:08:52;5.40;;;3.00;;
38529;SDS011;24301;54.332;48.386;2023-03-30T21:11:20;6.67;;;4.03;;
38529;SDS011;24301;54.332;48.386;2023-03-30T21:13:54;5.23;;;3.03;;
38529;SDS011;24301;54.332;48.386;2023-03-30T21:16:24;5.45;;;3.13;;
38529;SDS011;24301;54.332;48.386;2023-03-30T21:19:35;4.73;;;3.30;;
38529;SDS011;24301;54.332;48.386;2023-03-30T21:24:54;4.13;;;3.43;;
38529;SDS011;24301;54.332;48.386;2023-03-30T21:27:20;10.40;;;4.00;;
38529;SDS011;24301;54.332;48.386;2023-03-30T21:29:49;4.70;;;3.17;;
38529;SDS011;24301;54.332;48.386;2023-03-30T21:32:15;6.20;;;3.50;;
38529;SDS011;24301;54.332;48.386;2023-03-30T21:34:41;9.17;;;3.90;;
38529;SDS011;24301;54.332;48.386;2023-03-30T21:37:07;6.27;;;3.03;;
38529;SDS011;24301;54.332;48.386;2023-03-30T21:39:35;7.07;;;3.20;;
38529;SDS011;24301;54.332;48.386;2023-03-30T21:42:01;8.43;;;3.47;;
38529;SDS011;24301;54.332;48.386;2023-03-30T21:44:38;6.37;;;3.43;;
38529;SDS011;24301;54.332;48.386;2023-03-30T21:47:04;10.03;;;3.93;;
38529;SDS011;24301;54.332;48.386;2023-03-30T21:49:31;7.53;;;3.33;;
38529;SDS011;24301;54.332;48.386;2023-03-30T21:51:57;4.63;;;3.20;;
38529;SDS011;24301;54.332;48.386;2023-03-30T21:54:25;7.70;;;3.77;;
38529;SDS011;24301;54.332;48.386;2023-03-30T21:56:53;6.17;;;3.60;;
38529;SDS011;24301;54.332;48.386;2023-03-30T21:59:35;6.03;;;3.28;;
38529;SDS011;24301;54.332;48.386;2023-03-30T22:02:01;6.47;;;3.83;;
38529;SDS011;24301;54.332;48.386;2023-03-30T22:04:27;6.57;;;4.20;;
38529;SDS011;24301;54.332;48.386;2023-03-30T22:06:53;11.73;;;3.93;;
38529;SDS011;24301;54.332;48.386;2023-03-30T22:12:10;5.20;;;3.47;;